sensor_id;sensor_type;location;lat;lon;timestamp;P1;durP1;ratioP1;P2;durP2;ratioP2
14592;SDS011;7383;52.354;9.756;2023-12-04T00:00:41;11.60;;;9.75;;
14592;SDS011;7383;52.354;9.756;2023-12-04T00:03:07;13.48;;;10.30;;
14592;SDS011;7383;52.354;9.756;2023-12-04T00:05:35;12.75;;;10.10;;
14592;SDS011;7383;52.354;9.756;2023-12-04T00:08:04;14.05;;;10.52;;
14592;SDS011;7383;52.354;9.756;2023-12-04T00:10:30;12.63;;;9.95;;
14592;SDS011;7383;52.354;9.756;2023-12-04T00:12:56;13.55;;;10.55;;
14592;SDS011;7383;52.354;9.756;2023-12-04T00:15:23;13.88;;;10.57;;
14592;SDS011;7383;52.354;9.756;2023-12-04T00:17:49;13.93;;;10.93;;
14592;SDS011;7383;52.354;9.756;2023-12-04T00:20:15;13.23;;;10.45;;
14592;SDS011;7383;52.354;9.756;2023-12-04T00:22:43;12.30;;;9.93;;
14592;SDS011;7383;52.354;9.756;2023-12-04T00:25:09;13.38;;;10.52;;
14592;SDS011;7383;52.354;9.756;2023-12-04T00:27:36;12.05;;;10.13;;
14592;SDS011;7383;52.354;9.756;2023-12-04T00:30:02;12.18;;;9.77;;
14592;SDS011;7383;52.354;9.756;2023-12-04T00:32:29;11.23;;;9.45;;
14592;SDS011;7383;52.354;9.756;2023-12-04T00:34:56;12.13;;;10.32;;
14592;SDS011;7383;52.354;9.756;2023-12-04T00:37:22;12.88;;;10.13;;
14592;SDS011;7383;52.354;9.756;2023-12-04T00:39:50;12.05;;;9.02;;
14592;SDS011;7383;52.354;9.756;2023-12-04T00:42:16;10.95;;;8.95;;
14592;SDS011;7383;52.354;9.756;2023-12-04T00:44:43;11.40;;;9.32;;
14592;SDS011;7383;52.354;9.756;2023-12-04T00:47:09;12.25;;;9.90;;
14592;SDS011;7383;52.354;9.756;2023-12-04T00:49:36;11.45;;;9.10;;
14592;SDS011;7383;52.354;9.756;2023-12-04T00:52:02;11.07;;;8.77;;
14592;SDS011;7383;52.354;9.756;2023-12-04T00:54:28;10.57;;;8.38;;
14592;SDS011;7383;52.354;9.756;2023-12-04T00:56:56;10.77;;;8.82;;
14592;SDS011;7383;52.354;9.756;2023-12-04T00:59:22;11.85;;;9.52;;
14592;SDS011;7383;52.354;9.756;2023-12-04T01:01:49;10.98;;;8.98;;
14592;SDS011;7383;52.354;9.756;2023-12-04T01:04:15;9.75;;;8.75;;
14592;SDS011;7383;52.354;9.756;2023-12-04T01:06:41;11.73;;;9.45;;
14592;SDS011;7383;52.354;9.756;2023-12-04T01:09:07;12.98;;;9.88;;
14592;SDS011;7383;52.354;9.756;2023-12-04T01:11:34;11.25;;;9.10;;
14592;SDS011;7383;52.354;9.756;2023-12-04T01:14:03;11.93;;;9.68;;
14592;SDS011;7383;52.354;9.756;2023-12-04T01:16:29;11.45;;;9.32;;
14592;SDS011;7383;52.354;9.756;2023-12-04T01:18:55;12.05;;;9.40;;
14592;SDS011;7383;52.354;9.756;2023-12-04T01:21:22;12.18;;;9.63;;
14592;SDS011;7383;52.354;9.756;2023-12-04T01:23:48;9.93;;;8.80;;
14592;SDS011;7383;52.354;9.756;2023-12-04T01:26:14;10.48;;;8.30;;
14592;SDS011;7383;52.354;9.756;2023-12-04T01:28:41;10.95;;;8.77;;
14592;SDS011;7383;52.354;9.756;2023-12-04T01:31:08;8.90;;;8.00;;
14592;SDS011;7383;52.354;9.756;2023-12-04T01:33:35;10.50;;;8.75;;
14592;SDS011;7383;52.354;9.756;2023-12-04T01:36:01;9.93;;;8.10;;
14592;SDS011;7383;52.354;9.756;2023-12-04T01:38:28;10.20;;;8.25;;
14592;SDS011;7383;52.354;9.756;2023-12-04T01:40:54;12.63;;;9.50;;
14592;SDS011;7383;52.354;9.756;2023-12-04T01:43:20;11.82;;;9.10;;
14592;SDS011;7383;52.354;9.756;2023-12-04T01:45:47;10.82;;;8.98;;
14592;SDS011;7383;52.354;9.756;2023-12-04T01:48:14;10.05;;;8.50;;
14592;SDS011;7383;52.354;9.756;2023-12-04T01:50:41;11.25;;;9.63;;
14592;SDS011;7383;52.354;9.756;2023-12-04T01:53:07;10.98;;;9.02;;
14592;SDS011;7383;52.354;9.756;2023-12-04T01:55:34;10.70;;;8.88;;
14592;SDS011;7383;52.354;9.756;2023-12-04T01:58:03;10.73;;;8.30;;
14592;SDS011;7383;52.354;9.756;2023-12-04T02:00:29;9.77;;;8.00;;
14592;SDS011;7383;52.354;9.756;2023-12-04T02:02:56;10.70;;;8.45;;
14592;SDS011;7383;52.354;9.756;2023-12-04T02:05:24;9.27;;;8.10;;
14592;SDS011;7383;52.354;9.756;2023-12-04T02:07:50;9.45;;;7.93;;
14592;SDS011;7383;52.354;9.756;2023-12-04T02:10:17;10.88;;;8.07;;
14592;SDS011;7383;52.354;9.756;2023-12-04T02:12:43;8.40;;;7.50;;
14592;SDS011;7383;52.354;9.756;2023-12-04T02:15:10;8.65;;;6.95;;
14592;SDS011;7383;52.354;9.756;2023-12-04T02:17:36;9.32;;;7.40;;
14592;SDS011;7383;52.354;9.756;2023-12-04T02:20:03;9.05;;;7.43;;
14592;SDS011;7383;52.354;9.756;2023-12-04T02:22:31;8.88;;;6.97;;
14592;SDS011;7383;52.354;9.756;2023-12-04T02:24:59;7.95;;;7.15;;
14592;SDS011;7383;52.354;9.756;2023-12-04T02:27:26;8.77;;;7.50;;
14592;SDS011;7383;52.354;9.756;2023-12-04T02:29:55;8.65;;;7.18;;
14592;SDS011;7383;52.354;9.756;2023-12-04T02:32:22;9.10;;;7.15;;
14592;SDS011;7383;52.354;9.756;2023-12-04T02:34:49;9.55;;;7.70;;
14592;SDS011;7383;52.354;9.756;2023-12-04T02:37:16;8.23;;;7.18;;
14592;SDS011;7383;52.354;9.756;2023-12-04T02:39:43;8.05;;;6.93;;
14592;SDS011;7383;52.354;9.756;2023-12-04T02:42:12;7.35;;;6.65;;
14592;SDS011;7383;52.354;9.756;2023-12-04T02:44:39;8.35;;;7.00;;
14592;SDS011;7383;52.354;9.756;2023-12-04T02:47:05;8.25;;;7.00;;
14592;SDS011;7383;52.354;9.756;2023-12-04T02:49:34;8.25;;;7.22;;
14592;SDS011;7383;52.354;9.756;2023-12-04T02:52:00;7.97;;;7.18;;
14592;SDS011;7383;52.354;9.756;2023-12-04T02:54:27;8.05;;;6.88;;
14592;SDS011;7383;52.354;9.756;2023-12-04T02:56:55;8.43;;;7.22;;
14592;SDS011;7383;52.354;9.756;2023-12-04T02:59:23;8.70;;;7.28;;
14592;SDS011;7383;52.354;9.756;2023-12-04T03:01:49;8.23;;;6.82;;
14592;SDS011;7383;52.354;9.756;2023-12-04T03:04:15;8.65;;;7.32;;
14592;SDS011;7383;52.354;9.756;2023-12-04T03:06:41;7.78;;;6.90;;
14592;SDS011;7383;52.354;9.756;2023-12-04T03:09:08;9.20;;;7.68;;
14592;SDS011;7383;52.354;9.756;2023-12-04T03:11:34;9.50;;;7.45;;
14592;SDS011;7383;52.354;9.756;2023-12-04T03:14:00;9.90;;;7.47;;
14592;SDS011;7383;52.354;9.756;2023-12-04T03:16:28;8.82;;;7.65;;
14592;SDS011;7383;52.354;9.756;2023-12-04T03:18:57;7.53;;;6.72;;
14592;SDS011;7383;52.354;9.756;2023-12-04T03:21:23;8.70;;;6.90;;
14592;SDS011;7383;52.354;9.756;2023-12-04T03:23:50;7.55;;;6.65;;
14592;SDS011;7383;52.354;9.756;2023-12-04T03:26:16;8.77;;;7.50;;
14592;SDS011;7383;52.354;9.756;2023-12-04T03:28:42;7.82;;;6.72;;
14592;SDS011;7383;52.354;9.756;2023-12-04T03:31:09;7.82;;;7.00;;
14592;SDS011;7383;52.354;9.756;2023-12-04T03:33:37;7.22;;;6.50;;
14592;SDS011;7383;52.354;9.756;2023-12-04T03:36:03;7.25;;;6.20;;
14592;SDS011;7383;52.354;9.756;2023-12-04T03:38:30;8.77;;;7.22;;
14592;SDS011;7383;52.354;9.756;2023-12-04T03:40:57;8.02;;;7.22;;
14592;SDS011;7383;52.354;9.756;2023-12-04T03:43:23;7.85;;;7.00;;
14592;SDS011;7383;52.354;9.756;2023-12-04T03:45:49;8.95;;;8.00;;
14592;SDS011;7383;52.354;9.756;2023-12-04T03:48:15;8.68;;;7.47;;
14592;SDS011;7383;52.354;9.756;2023-12-04T03:50:43;8.93;;;7.35;;
14592;SDS011;7383;52.354;9.756;2023-12-04T03:53:10;9.02;;;7.60;;
14592;SDS011;7383;52.354;9.756;2023-12-04T03:55:36;8.38;;;7.47;;
14592;SDS011;7383;52.354;9.756;2023-12-04T03:58:02;8.60;;;7.47;;
14592;SDS011;7383;52.354;9.756;2023-12-04T04:00:31;8.50;;;7.43;;
14592;SDS011;7383;52.354;9.756;2023-12-04T04:02:57;8.80;;;7.22;;
14592;SDS011;7383;52.354;9.756;2023-12-04T04:05:24;8.77;;;7.53;;
14592;SDS011;7383;52.354;9.756;2023-12-04T04:07:52;9.57;;;8.18;;
14592;SDS011;7383;52.354;9.756;2023-12-04T04:10:18;8.48;;;7.47;;
14592;SDS011;7383;52.354;9.756;2023-12-04T04:12:44;8.30;;;7.50;;
14592;SDS011;7383;52.354;9.756;2023-12-04T04:15:10;9.18;;;7.90;;
14592;SDS011;7383;52.354;9.756;2023-12-04T04:17:37;7.78;;;6.70;;
14592;SDS011;7383;52.354;9.756;2023-12-04T04:20:03;7.40;;;6.60;;
14592;SDS011;7383;52.354;9.756;2023-12-04T04:22:30;9.02;;;6.88;;
14592;SDS011;7383;52.354;9.756;2023-12-04T04:25:00;8.35;;;7.50;;
14592;SDS011;7383;52.354;9.756;2023-12-04T04:27:27;7.93;;;6.75;;
14592;SDS011;7383;52.354;9.756;2023-12-04T04:29:53;8.63;;;7.38;;
14592;SDS011;7383;52.354;9.756;2023-12-04T04:32:19;7.70;;;6.78;;
14592;SDS011;7383;52.354;9.756;2023-12-04T04:34:46;7.43;;;6.68;;
14592;SDS011;7383;52.354;9.756;2023-12-04T04:37:12;6.95;;;6.25;;
14592;SDS011;7383;52.354;9.756;2023-12-04T04:39:39;7.13;;;6.43;;
14592;SDS011;7383;52.354;9.756;2023-12-04T04:42:07;7.18;;;6.47;;
14592;SDS011;7383;52.354;9.756;2023-12-04T04:44:33;7.57;;;6.80;;
14592;SDS011;7383;52.354;9.756;2023-12-04T04:46:59;7.43;;;6.72;;
14592;SDS011;7383;52.354;9.756;2023-12-04T04:49:26;7.07;;;6.38;;
14592;SDS011;7383;52.354;9.756;2023-12-04T04:51:52;7.30;;;6.32;;
14592;SDS011;7383;52.354;9.756;2023-12-04T04:54:18;7.63;;;6.82;;
14592;SDS011;7383;52.354;9.756;2023-12-04T04:56:44;7.22;;;6.53;;
14592;SDS011;7383;52.354;9.756;2023-12-04T04:59:12;6.97;;;6.28;;
14592;SDS011;7383;52.354;9.756;2023-12-04T05:01:39;7.03;;;6.32;;
14592;SDS011;7383;52.354;9.756;2023-12-04T05:04:05;7.30;;;6.43;;
14592;SDS011;7383;52.354;9.756;2023-12-04T05:06:31;7.95;;;7.15;;
14592;SDS011;7383;52.354;9.756;2023-12-04T05:08:57;7.97;;;6.40;;
14592;SDS011;7383;52.354;9.756;2023-12-04T05:11:24;7.30;;;6.60;;
14592;SDS011;7383;52.354;9.756;2023-12-04T05:13:50;6.20;;;5.65;;
14592;SDS011;7383;52.354;9.756;2023-12-04T05:16:18;6.13;;;5.53;;
14592;SDS011;7383;52.354;9.756;2023-12-04T05:18:44;6.53;;;5.80;;
14592;SDS011;7383;52.354;9.756;2023-12-04T05:21:11;6.50;;;5.90;;
14592;SDS011;7383;52.354;9.756;2023-12-04T05:23:37;6.93;;;6.22;;
14592;SDS011;7383;52.354;9.756;2023-12-04T05:26:04;7.00;;;6.13;;
14592;SDS011;7383;52.354;9.756;2023-12-04T05:28:30;6.97;;;6.28;;
14592;SDS011;7383;52.354;9.756;2023-12-04T05:30:56;6.90;;;6.20;;
14592;SDS011;7383;52.354;9.756;2023-12-04T05:33:24;6.47;;;5.85;;
14592;SDS011;7383;52.354;9.756;2023-12-04T05:35:50;6.72;;;6.13;;
14592;SDS011;7383;52.354;9.756;2023-12-04T05:38:17;7.63;;;6.72;;
14592;SDS011;7383;52.354;9.756;2023-12-04T05:40:43;6.22;;;5.63;;
14592;SDS011;7383;52.354;9.756;2023-12-04T05:43:10;7.47;;;6.70;;
14592;SDS011;7383;52.354;9.756;2023-12-04T05:45:36;7.40;;;6.70;;
14592;SDS011;7383;52.354;9.756;2023-12-04T05:48:02;6.57;;;5.93;;
14592;SDS011;7383;52.354;9.756;2023-12-04T05:50:30;7.18;;;6.47;;
14592;SDS011;7383;52.354;9.756;2023-12-04T05:52:57;6.80;;;6.10;;
14592;SDS011;7383;52.354;9.756;2023-12-04T05:55:23;7.38;;;6.53;;
14592;SDS011;7383;52.354;9.756;2023-12-04T05:57:50;7.40;;;6.65;;
14592;SDS011;7383;52.354;9.756;2023-12-04T06:00:16;7.80;;;7.00;;
14592;SDS011;7383;52.354;9.756;2023-12-04T06:02:43;8.35;;;7.15;;
14592;SDS011;7383;52.354;9.756;2023-12-04T06:05:09;7.88;;;6.90;;
14592;SDS011;7383;52.354;9.756;2023-12-04T06:07:37;8.20;;;7.40;;
14592;SDS011;7383;52.354;9.756;2023-12-04T06:10:04;8.13;;;7.10;;
14592;SDS011;7383;52.354;9.756;2023-12-04T06:12:31;7.95;;;7.15;;
14592;SDS011;7383;52.354;9.756;2023-12-04T06:14:58;7.50;;;6.53;;
14592;SDS011;7383;52.354;9.756;2023-12-04T06:17:25;7.78;;;6.97;;
14592;SDS011;7383;52.354;9.756;2023-12-04T06:19:52;7.13;;;6.43;;
14592;SDS011;7383;52.354;9.756;2023-12-04T06:22:18;8.48;;;7.00;;
14592;SDS011;7383;52.354;9.756;2023-12-04T06:24:48;8.13;;;7.32;;
14592;SDS011;7383;52.354;9.756;2023-12-04T06:27:15;7.88;;;7.07;;
14592;SDS011;7383;52.354;9.756;2023-12-04T06:29:43;8.13;;;7.32;;
14592;SDS011;7383;52.354;9.756;2023-12-04T06:32:10;8.65;;;7.60;;
14592;SDS011;7383;52.354;9.756;2023-12-04T06:34:44;8.45;;;7.47;;
14592;SDS011;7383;52.354;9.756;2023-12-04T06:37:11;8.00;;;7.20;;
14592;SDS011;7383;52.354;9.756;2023-12-04T06:39:38;8.63;;;7.47;;
14592;SDS011;7383;52.354;9.756;2023-12-04T06:42:07;8.77;;;7.63;;
14592;SDS011;7383;52.354;9.756;2023-12-04T06:44:35;8.80;;;7.78;;
14592;SDS011;7383;52.354;9.756;2023-12-04T06:47:01;9.07;;;8.10;;
14592;SDS011;7383;52.354;9.756;2023-12-04T06:49:28;8.85;;;7.95;;
14592;SDS011;7383;52.354;9.756;2023-12-04T06:51:56;8.98;;;8.07;;
14592;SDS011;7383;52.354;9.756;2023-12-04T06:54:22;9.82;;;8.50;;
14592;SDS011;7383;52.354;9.756;2023-12-04T06:56:48;9.50;;;8.00;;
14592;SDS011;7383;52.354;9.756;2023-12-04T06:59:16;8.85;;;7.80;;
14592;SDS011;7383;52.354;9.756;2023-12-04T07:01:43;9.10;;;7.95;;
14592;SDS011;7383;52.354;9.756;2023-12-04T07:06:57;9.30;;;7.70;;
14592;SDS011;7383;52.354;9.756;2023-12-04T07:09:29;9.45;;;8.23;;
14592;SDS011;7383;52.354;9.756;2023-12-04T07:11:56;9.43;;;8.45;;
14592;SDS011;7383;52.354;9.756;2023-12-04T07:14:23;10.30;;;8.75;;
14592;SDS011;7383;52.354;9.756;2023-12-04T07:16:50;10.23;;;7.88;;
14592;SDS011;7383;52.354;9.756;2023-12-04T07:19:16;9.55;;;8.23;;
14592;SDS011;7383;52.354;9.756;2023-12-04T07:21:45;8.57;;;7.70;;
14592;SDS011;7383;52.354;9.756;2023-12-04T07:24:12;8.98;;;8.07;;
14592;SDS011;7383;52.354;9.756;2023-12-04T07:26:38;8.57;;;7.68;;
14592;SDS011;7383;52.354;9.756;2023-12-04T07:29:04;8.98;;;7.82;;
14592;SDS011;7383;52.354;9.756;2023-12-04T07:31:32;9.13;;;7.82;;
14592;SDS011;7383;52.354;9.756;2023-12-04T07:33:58;9.25;;;8.25;;
14592;SDS011;7383;52.354;9.756;2023-12-04T07:36:26;8.88;;;7.97;;
14592;SDS011;7383;52.354;9.756;2023-12-04T07:38:53;9.55;;;7.90;;
14592;SDS011;7383;52.354;9.756;2023-12-04T07:41:19;9.00;;;8.10;;
14592;SDS011;7383;52.354;9.756;2023-12-04T07:43:46;8.77;;;7.75;;
14592;SDS011;7383;52.354;9.756;2023-12-04T07:46:13;9.10;;;8.15;;
14592;SDS011;7383;52.354;9.756;2023-12-04T07:48:40;9.57;;;8.43;;
14592;SDS011;7383;52.354;9.756;2023-12-04T07:51:07;9.13;;;8.15;;
14592;SDS011;7383;52.354;9.756;2023-12-04T07:53:35;9.68;;;8.55;;
14592;SDS011;7383;52.354;9.756;2023-12-04T07:56:01;10.90;;;9.38;;
14592;SDS011;7383;52.354;9.756;2023-12-04T07:58:28;9.48;;;8.38;;
14592;SDS011;7383;52.354;9.756;2023-12-04T08:00:55;10.10;;;8.70;;
14592;SDS011;7383;52.354;9.756;2023-12-04T08:03:21;8.60;;;7.55;;
14592;SDS011;7383;52.354;9.756;2023-12-04T08:05:50;10.05;;;8.27;;
14592;SDS011;7383;52.354;9.756;2023-12-04T08:08:16;9.60;;;8.50;;
14592;SDS011;7383;52.354;9.756;2023-12-04T08:10:42;9.45;;;8.02;;
14592;SDS011;7383;52.354;9.756;2023-12-04T08:13:09;10.07;;;8.85;;
14592;SDS011;7383;52.354;9.756;2023-12-04T08:15:35;10.38;;;8.80;;
14592;SDS011;7383;52.354;9.756;2023-12-04T08:18:01;9.70;;;8.43;;
14592;SDS011;7383;52.354;9.756;2023-12-04T08:20:28;9.80;;;8.55;;
14592;SDS011;7383;52.354;9.756;2023-12-04T08:22:55;9.68;;;8.23;;
14592;SDS011;7383;52.354;9.756;2023-12-04T08:25:21;9.13;;;8.05;;
14592;SDS011;7383;52.354;9.756;2023-12-04T08:27:48;8.38;;;7.40;;
14592;SDS011;7383;52.354;9.756;2023-12-04T08:30:14;10.50;;;8.40;;
14592;SDS011;7383;52.354;9.756;2023-12-04T08:32:41;9.57;;;8.55;;
14592;SDS011;7383;52.354;9.756;2023-12-04T08:35:07;9.00;;;7.88;;
14592;SDS011;7383;52.354;9.756;2023-12-04T08:37:35;9.20;;;8.20;;
14592;SDS011;7383;52.354;9.756;2023-12-04T08:40:03;8.40;;;7.50;;
14592;SDS011;7383;52.354;9.756;2023-12-04T08:42:30;8.70;;;7.63;;
14592;SDS011;7383;52.354;9.756;2023-12-04T08:44:56;8.43;;;7.38;;
14592;SDS011;7383;52.354;9.756;2023-12-04T08:47:23;8.25;;;7.45;;
14592;SDS011;7383;52.354;9.756;2023-12-04T08:49:49;7.85;;;7.05;;
14592;SDS011;7383;52.354;9.756;2023-12-04T08:52:15;7.82;;;7.05;;
14592;SDS011;7383;52.354;9.756;2023-12-04T08:54:42;8.32;;;7.45;;
14592;SDS011;7383;52.354;9.756;2023-12-04T08:57:12;8.48;;;7.57;;
14592;SDS011;7383;52.354;9.756;2023-12-04T08:59:38;9.00;;;7.30;;
14592;SDS011;7383;52.354;9.756;2023-12-04T09:02:04;8.70;;;7.80;;
14592;SDS011;7383;52.354;9.756;2023-12-04T09:04:31;8.27;;;7.43;;
14592;SDS011;7383;52.354;9.756;2023-12-04T09:06:57;9.50;;;7.93;;
14592;SDS011;7383;52.354;9.756;2023-12-04T09:09:23;8.77;;;7.80;;
14592;SDS011;7383;52.354;9.756;2023-12-04T09:11:50;8.85;;;7.55;;
14592;SDS011;7383;52.354;9.756;2023-12-04T09:14:17;8.07;;;7.28;;
14592;SDS011;7383;52.354;9.756;2023-12-04T09:16:45;7.85;;;6.57;;
14592;SDS011;7383;52.354;9.756;2023-12-04T09:19:12;7.30;;;6.47;;
14592;SDS011;7383;52.354;9.756;2023-12-04T09:21:38;7.10;;;6.40;;
14592;SDS011;7383;52.354;9.756;2023-12-04T09:24:05;6.72;;;6.03;;
14592;SDS011;7383;52.354;9.756;2023-12-04T09:26:31;7.80;;;6.20;;
14592;SDS011;7383;52.354;9.756;2023-12-04T09:28:58;7.70;;;6.90;;
14592;SDS011;7383;52.354;9.756;2023-12-04T09:31:25;7.40;;;6.60;;
14592;SDS011;7383;52.354;9.756;2023-12-04T09:33:52;6.75;;;6.05;;
14592;SDS011;7383;52.354;9.756;2023-12-04T09:36:18;6.28;;;5.68;;
14592;SDS011;7383;52.354;9.756;2023-12-04T09:38:44;6.75;;;6.15;;
14592;SDS011;7383;52.354;9.756;2023-12-04T09:41:11;6.45;;;5.85;;
14592;SDS011;7383;52.354;9.756;2023-12-04T09:43:38;6.43;;;5.82;;
14592;SDS011;7383;52.354;9.756;2023-12-04T09:46:06;7.15;;;6.43;;
14592;SDS011;7383;52.354;9.756;2023-12-04T09:48:34;7.30;;;6.60;;
14592;SDS011;7383;52.354;9.756;2023-12-04T09:51:01;7.53;;;6.82;;
14592;SDS011;7383;52.354;9.756;2023-12-04T09:53:28;7.63;;;6.43;;
14592;SDS011;7383;52.354;9.756;2023-12-04T09:55:56;7.70;;;7.00;;
14592;SDS011;7383;52.354;9.756;2023-12-04T09:58:24;7.53;;;6.72;;
14592;SDS011;7383;52.354;9.756;2023-12-04T10:00:51;6.63;;;6.03;;
14592;SDS011;7383;52.354;9.756;2023-12-04T10:03:20;7.25;;;6.40;;
14592;SDS011;7383;52.354;9.756;2023-12-04T10:05:47;8.75;;;7.00;;
14592;SDS011;7383;52.354;9.756;2023-12-04T10:08:14;6.72;;;6.03;;
14592;SDS011;7383;52.354;9.756;2023-12-04T10:10:42;6.15;;;5.65;;
14592;SDS011;7383;52.354;9.756;2023-12-04T10:13:08;7.72;;;6.60;;
14592;SDS011;7383;52.354;9.756;2023-12-04T10:15:35;6.13;;;5.60;;
14592;SDS011;7383;52.354;9.756;2023-12-04T10:18:17;6.65;;;6.05;;
14592;SDS011;7383;52.354;9.756;2023-12-04T10:20:52;6.78;;;6.18;;
14592;SDS011;7383;52.354;9.756;2023-12-04T10:23:19;6.30;;;5.70;;
14592;SDS011;7383;52.354;9.756;2023-12-04T10:25:46;6.30;;;5.75;;
14592;SDS011;7383;52.354;9.756;2023-12-04T10:28:14;6.22;;;5.63;;
14592;SDS011;7383;52.354;9.756;2023-12-04T10:30:41;6.53;;;5.93;;
14592;SDS011;7383;52.354;9.756;2023-12-04T10:33:07;6.10;;;5.50;;
14592;SDS011;7383;52.354;9.756;2023-12-04T10:35:34;7.07;;;6.47;;
14592;SDS011;7383;52.354;9.756;2023-12-04T10:38:03;7.10;;;6.07;;
14592;SDS011;7383;52.354;9.756;2023-12-04T10:40:31;6.38;;;5.78;;
14592;SDS011;7383;52.354;9.756;2023-12-04T10:43:10;7.30;;;6.50;;
14592;SDS011;7383;52.354;9.756;2023-12-04T10:45:36;6.32;;;5.72;;
14592;SDS011;7383;52.354;9.756;2023-12-04T10:48:19;6.47;;;5.88;;
14592;SDS011;7383;52.354;9.756;2023-12-04T10:50:46;6.78;;;6.10;;
14592;SDS011;7383;52.354;9.756;2023-12-04T10:53:15;6.68;;;5.97;;
14592;SDS011;7383;52.354;9.756;2023-12-04T10:55:42;6.53;;;5.93;;
14592;SDS011;7383;52.354;9.756;2023-12-04T10:58:10;6.13;;;5.50;;
14592;SDS011;7383;52.354;9.756;2023-12-04T11:00:38;6.20;;;5.60;;
14592;SDS011;7383;52.354;9.756;2023-12-04T11:03:07;5.70;;;5.20;;
14592;SDS011;7383;52.354;9.756;2023-12-04T11:05:33;5.93;;;5.43;;
14592;SDS011;7383;52.354;9.756;2023-12-04T11:08:02;5.80;;;5.25;;
14592;SDS011;7383;52.354;9.756;2023-12-04T11:10:33;6.18;;;5.57;;
14592;SDS011;7383;52.354;9.756;2023-12-04T11:13:00;5.63;;;5.13;;
14592;SDS011;7383;52.354;9.756;2023-12-04T11:15:30;5.65;;;5.15;;
14592;SDS011;7383;52.354;9.756;2023-12-04T11:17:58;5.80;;;5.28;;
14592;SDS011;7383;52.354;9.756;2023-12-04T11:20:26;6.05;;;5.45;;
14592;SDS011;7383;52.354;9.756;2023-12-04T11:22:53;6.32;;;5.72;;
14592;SDS011;7383;52.354;9.756;2023-12-04T11:25:19;6.13;;;5.63;;
14592;SDS011;7383;52.354;9.756;2023-12-04T11:27:49;5.97;;;5.38;;
14592;SDS011;7383;52.354;9.756;2023-12-04T11:30:16;5.88;;;5.38;;
14592;SDS011;7383;52.354;9.756;2023-12-04T11:32:43;5.75;;;5.25;;
14592;SDS011;7383;52.354;9.756;2023-12-04T11:35:12;5.70;;;5.10;;
14592;SDS011;7383;52.354;9.756;2023-12-04T11:37:39;5.50;;;4.95;;
14592;SDS011;7383;52.354;9.756;2023-12-04T11:40:05;5.40;;;4.90;;
14592;SDS011;7383;52.354;9.756;2023-12-04T11:42:32;5.78;;;5.28;;
14592;SDS011;7383;52.354;9.756;2023-12-04T11:45:00;6.15;;;5.63;;
14592;SDS011;7383;52.354;9.756;2023-12-04T11:47:28;5.95;;;5.35;;
14592;SDS011;7383;52.354;9.756;2023-12-04T11:49:55;5.60;;;5.10;;
14592;SDS011;7383;52.354;9.756;2023-12-04T11:52:31;6.00;;;5.50;;
14592;SDS011;7383;52.354;9.756;2023-12-04T11:54:58;5.47;;;4.97;;
14592;SDS011;7383;52.354;9.756;2023-12-04T11:57:25;6.28;;;5.43;;
14592;SDS011;7383;52.354;9.756;2023-12-04T12:00:05;5.72;;;5.22;;
14592;SDS011;7383;52.354;9.756;2023-12-04T12:02:33;5.57;;;5.07;;
14592;SDS011;7383;52.354;9.756;2023-12-04T12:05:00;5.70;;;5.20;;
14592;SDS011;7383;52.354;9.756;2023-12-04T12:07:27;6.10;;;5.50;;
14592;SDS011;7383;52.354;9.756;2023-12-04T12:09:53;5.50;;;5.00;;
14592;SDS011;7383;52.354;9.756;2023-12-04T12:12:21;5.35;;;4.88;;
14592;SDS011;7383;52.354;9.756;2023-12-04T12:14:47;6.03;;;5.45;;
14592;SDS011;7383;52.354;9.756;2023-12-04T12:17:15;4.60;;;4.20;;
14592;SDS011;7383;52.354;9.756;2023-12-04T12:19:41;5.95;;;5.35;;
14592;SDS011;7383;52.354;9.756;2023-12-04T12:22:07;6.47;;;5.85;;
14592;SDS011;7383;52.354;9.756;2023-12-04T12:24:34;5.53;;;5.03;;
14592;SDS011;7383;52.354;9.756;2023-12-04T12:27:00;5.22;;;4.82;;
14592;SDS011;7383;52.354;9.756;2023-12-04T12:29:27;5.90;;;5.40;;
14592;SDS011;7383;52.354;9.756;2023-12-04T12:31:53;5.70;;;5.20;;
14592;SDS011;7383;52.354;9.756;2023-12-04T12:34:21;5.25;;;4.75;;
14592;SDS011;7383;52.354;9.756;2023-12-04T12:36:48;4.97;;;4.57;;
14592;SDS011;7383;52.354;9.756;2023-12-04T12:39:14;5.15;;;4.65;;
14592;SDS011;7383;52.354;9.756;2023-12-04T12:41:46;5.63;;;5.13;;
14592;SDS011;7383;52.354;9.756;2023-12-04T12:44:15;5.97;;;5.38;;
14592;SDS011;7383;52.354;9.756;2023-12-04T12:46:46;4.88;;;4.45;;
14592;SDS011;7383;52.354;9.756;2023-12-04T12:49:13;5.28;;;4.78;;
14592;SDS011;7383;52.354;9.756;2023-12-04T12:51:41;5.30;;;4.80;;
14592;SDS011;7383;52.354;9.756;2023-12-04T12:54:08;5.10;;;4.60;;
14592;SDS011;7383;52.354;9.756;2023-12-04T12:56:35;4.75;;;4.32;;
14592;SDS011;7383;52.354;9.756;2023-12-04T12:59:01;4.70;;;4.30;;
14592;SDS011;7383;52.354;9.756;2023-12-04T13:01:30;4.93;;;4.40;;
14592;SDS011;7383;52.354;9.756;2023-12-04T13:03:56;4.60;;;4.20;;
14592;SDS011;7383;52.354;9.756;2023-12-04T13:06:22;4.32;;;3.92;;
14592;SDS011;7383;52.354;9.756;2023-12-04T13:08:50;4.68;;;4.28;;
14592;SDS011;7383;52.354;9.756;2023-12-04T13:11:16;4.88;;;4.47;;
14592;SDS011;7383;52.354;9.756;2023-12-04T13:13:43;4.90;;;4.50;;
14592;SDS011;7383;52.354;9.756;2023-12-04T13:16:09;5.32;;;4.85;;
14592;SDS011;7383;52.354;9.756;2023-12-04T13:18:36;5.00;;;4.60;;
14592;SDS011;7383;52.354;9.756;2023-12-04T13:21:04;4.70;;;4.30;;
14592;SDS011;7383;52.354;9.756;2023-12-04T13:23:30;4.82;;;4.32;;
14592;SDS011;7383;52.354;9.756;2023-12-04T13:25:58;4.75;;;4.35;;
14592;SDS011;7383;52.354;9.756;2023-12-04T13:28:24;5.05;;;4.57;;
14592;SDS011;7383;52.354;9.756;2023-12-04T13:30:51;4.60;;;4.20;;
14592;SDS011;7383;52.354;9.756;2023-12-04T13:33:18;4.20;;;3.80;;
14592;SDS011;7383;52.354;9.756;2023-12-04T13:35:44;4.38;;;4.00;;
14592;SDS011;7383;52.354;9.756;2023-12-04T13:38:11;4.03;;;3.72;;
14592;SDS011;7383;52.354;9.756;2023-12-04T13:40:38;4.93;;;4.50;;
14592;SDS011;7383;52.354;9.756;2023-12-04T13:43:06;4.40;;;4.00;;
14592;SDS011;7383;52.354;9.756;2023-12-04T13:45:51;3.70;;;3.38;;
14592;SDS011;7383;52.354;9.756;2023-12-04T13:48:17;4.85;;;4.45;;
14592;SDS011;7383;52.354;9.756;2023-12-04T13:50:46;4.40;;;4.00;;
14592;SDS011;7383;52.354;9.756;2023-12-04T13:53:15;4.60;;;4.20;;
14592;SDS011;7383;52.354;9.756;2023-12-04T13:55:45;4.63;;;4.18;;
14592;SDS011;7383;52.354;9.756;2023-12-04T13:58:36;4.80;;;4.05;;
14592;SDS011;7383;52.354;9.756;2023-12-04T14:01:05;4.35;;;4.03;;
14592;SDS011;7383;52.354;9.756;2023-12-04T14:03:38;4.60;;;4.20;;
14592;SDS011;7383;52.354;9.756;2023-12-04T14:06:04;4.22;;;3.90;;
14592;SDS011;7383;52.354;9.756;2023-12-04T14:08:31;3.97;;;3.67;;
14592;SDS011;7383;52.354;9.756;2023-12-04T14:10:57;4.80;;;4.25;;
14592;SDS011;7383;52.354;9.756;2023-12-04T14:13:23;4.55;;;4.15;;
14592;SDS011;7383;52.354;9.756;2023-12-04T14:15:51;4.00;;;3.70;;
14592;SDS011;7383;52.354;9.756;2023-12-04T14:18:17;4.30;;;3.90;;
14592;SDS011;7383;52.354;9.756;2023-12-04T14:20:44;4.60;;;4.20;;
14592;SDS011;7383;52.354;9.756;2023-12-04T14:23:10;4.20;;;3.90;;
14592;SDS011;7383;52.354;9.756;2023-12-04T14:25:36;4.57;;;4.18;;
14592;SDS011;7383;52.354;9.756;2023-12-04T14:28:04;3.70;;;3.40;;
14592;SDS011;7383;52.354;9.756;2023-12-04T14:30:30;4.93;;;4.45;;
14592;SDS011;7383;52.354;9.756;2023-12-04T14:32:57;4.43;;;3.90;;
14592;SDS011;7383;52.354;9.756;2023-12-04T14:35:24;4.65;;;4.25;;
14592;SDS011;7383;52.354;9.756;2023-12-04T14:37:50;4.20;;;3.90;;
14592;SDS011;7383;52.354;9.756;2023-12-04T14:40:16;4.10;;;3.80;;
14592;SDS011;7383;52.354;9.756;2023-12-04T14:42:43;4.00;;;3.70;;
14592;SDS011;7383;52.354;9.756;2023-12-04T14:45:09;3.60;;;3.30;;
14592;SDS011;7383;52.354;9.756;2023-12-04T14:47:36;3.95;;;3.65;;
14592;SDS011;7383;52.354;9.756;2023-12-04T14:50:04;3.85;;;3.55;;
14592;SDS011;7383;52.354;9.756;2023-12-04T14:52:31;3.80;;;3.50;;
14592;SDS011;7383;52.354;9.756;2023-12-04T14:54:59;3.90;;;3.60;;
14592;SDS011;7383;52.354;9.756;2023-12-04T14:57:53;3.58;;;3.28;;
14592;SDS011;7383;52.354;9.756;2023-12-04T15:00:42;3.53;;;3.22;;